sensor_id;sensor_type;location;lat;lon;timestamp;P1;durP1;ratioP1;P2;durP2;ratioP2
22268;SDS011;11303;50.772;19.670;2022-08-21T00:00:53;90.75;;;50.13;;
22268;SDS011;11303;50.772;19.670;2022-08-21T00:03:02;93.05;;;48.40;;
22268;SDS011;11303;50.772;19.670;2022-08-21T00:05:09;80.40;;;46.92;;
22268;SDS011;11303;50.772;19.670;2022-08-21T00:07:11;80.28;;;50.00;;
22268;SDS011;11303;50.772;19.670;2022-08-21T00:09:13;78.43;;;48.38;;
22268;SDS011;11303;50.772;19.670;2022-08-21T00:11:14;76.55;;;48.85;;
22268;SDS011;11303;50.772;19.670;2022-08-21T00:13:17;79.00;;;50.78;;
22268;SDS011;11303;50.772;19.670;2022-08-21T00:15:21;81.03;;;50.72;;
22268;SDS011;11303;50.772;19.670;2022-08-21T00:17:25;82.60;;;50.85;;
22268;SDS011;11303;50.772;19.670;2022-08-21T00:19:27;81.57;;;52.00;;
22268;SDS011;11303;50.772;19.670;2022-08-21T00:21:29;87.63;;;50.92;;
22268;SDS011;11303;50.772;19.670;2022-08-21T00:23:32;106.38;;;54.35;;
22268;SDS011;11303;50.772;19.670;2022-08-21T00:25:34;117.63;;;54.00;;
22268;SDS011;11303;50.772;19.670;2022-08-21T00:27:36;126.85;;;54.95;;
22268;SDS011;11303;50.772;19.670;2022-08-21T00:29:38;161.35;;;54.42;;
22268;SDS011;11303;50.772;19.670;2022-08-21T00:31:40;105.97;;;58.63;;
22268;SDS011;11303;50.772;19.670;2022-08-21T00:33:42;163.88;;;62.30;;
22268;SDS011;11303;50.772;19.670;2022-08-21T00:35:44;123.78;;;61.03;;
22268;SDS011;11303;50.772;19.670;2022-08-21T00:37:46;290.88;;;58.97;;
22268;SDS011;11303;50.772;19.670;2022-08-21T00:39:47;168.98;;;59.92;;
22268;SDS011;11303;50.772;19.670;2022-08-21T00:41:49;173.20;;;60.92;;
22268;SDS011;11303;50.772;19.670;2022-08-21T00:43:51;183.90;;;62.67;;
22268;SDS011;11303;50.772;19.670;2022-08-21T00:45:53;163.20;;;61.03;;
22268;SDS011;11303;50.772;19.670;2022-08-21T00:47:56;226.43;;;58.47;;
22268;SDS011;11303;50.772;19.670;2022-08-21T00:49:58;214.48;;;56.30;;
22268;SDS011;11303;50.772;19.670;2022-08-21T00:52:00;153.27;;;56.45;;
22268;SDS011;11303;50.772;19.670;2022-08-21T00:54:02;130.20;;;54.47;;
22268;SDS011;11303;50.772;19.670;2022-08-21T00:56:05;125.25;;;54.75;;
22268;SDS011;11303;50.772;19.670;2022-08-21T00:58:11;122.47;;;53.67;;
22268;SDS011;11303;50.772;19.670;2022-08-21T01:00:19;154.88;;;55.58;;
22268;SDS011;11303;50.772;19.670;2022-08-21T01:02:24;189.02;;;56.60;;
22268;SDS011;11303;50.772;19.670;2022-08-21T01:04:25;176.30;;;58.45;;
22268;SDS011;11303;50.772;19.670;2022-08-21T01:06:27;189.60;;;57.47;;
22268;SDS011;11303;50.772;19.670;2022-08-21T01:08:29;154.68;;;54.60;;
22268;SDS011;11303;50.772;19.670;2022-08-21T01:10:31;153.73;;;57.88;;
22268;SDS011;11303;50.772;19.670;2022-08-21T01:12:33;120.97;;;55.80;;
22268;SDS011;11303;50.772;19.670;2022-08-21T01:14:35;142.23;;;55.08;;
22268;SDS011;11303;50.772;19.670;2022-08-21T01:16:37;134.73;;;52.65;;
22268;SDS011;11303;50.772;19.670;2022-08-21T01:18:40;94.00;;;51.95;;
22268;SDS011;11303;50.772;19.670;2022-08-21T01:20:43;96.95;;;49.63;;
22268;SDS011;11303;50.772;19.670;2022-08-21T01:22:47;112.65;;;51.80;;
22268;SDS011;11303;50.772;19.670;2022-08-21T01:24:48;122.28;;;52.80;;
22268;SDS011;11303;50.772;19.670;2022-08-21T01:26:51;184.30;;;55.15;;
22268;SDS011;11303;50.772;19.670;2022-08-21T01:28:57;129.23;;;52.53;;
22268;SDS011;11303;50.772;19.670;2022-08-21T01:31:01;95.70;;;53.08;;
22268;SDS011;11303;50.772;19.670;2022-08-21T01:33:04;117.70;;;52.47;;
22268;SDS011;11303;50.772;19.670;2022-08-21T01:35:06;103.85;;;49.72;;
22268;SDS011;11303;50.772;19.670;2022-08-21T01:37:08;132.18;;;55.00;;
22268;SDS011;11303;50.772;19.670;2022-08-21T01:39:10;111.85;;;55.70;;
22268;SDS011;11303;50.772;19.670;2022-08-21T01:41:11;112.15;;;54.88;;
22268;SDS011;11303;50.772;19.670;2022-08-21T01:43:13;103.20;;;54.25;;
22268;SDS011;11303;50.772;19.670;2022-08-21T01:45:14;87.95;;;54.33;;
22268;SDS011;11303;50.772;19.670;2022-08-21T01:47:16;103.68;;;53.95;;
22268;SDS011;11303;50.772;19.670;2022-08-21T01:49:19;87.45;;;49.22;;
22268;SDS011;11303;50.772;19.670;2022-08-21T01:51:21;81.03;;;50.72;;
22268;SDS011;11303;50.772;19.670;2022-08-21T01:53:22;80.93;;;51.03;;
22268;SDS011;11303;50.772;19.670;2022-08-21T01:55:33;90.15;;;52.78;;
22268;SDS011;11303;50.772;19.670;2022-08-21T01:57:35;84.60;;;49.60;;
22268;SDS011;11303;50.772;19.670;2022-08-21T01:59:37;82.13;;;51.38;;
22268;SDS011;11303;50.772;19.670;2022-08-21T02:01:38;91.63;;;52.72;;
22268;SDS011;11303;50.772;19.670;2022-08-21T02:03:43;76.45;;;49.35;;
22268;SDS011;11303;50.772;19.670;2022-08-21T02:05:44;81.20;;;52.33;;
22268;SDS011;11303;50.772;19.670;2022-08-21T02:07:48;75.88;;;48.90;;
22268;SDS011;11303;50.772;19.670;2022-08-21T02:09:51;80.10;;;50.22;;
22268;SDS011;11303;50.772;19.670;2022-08-21T02:11:53;91.10;;;53.67;;
22268;SDS011;11303;50.772;19.670;2022-08-21T02:13:55;84.03;;;50.85;;
22268;SDS011;11303;50.772;19.670;2022-08-21T02:15:57;90.40;;;54.85;;
22268;SDS011;11303;50.772;19.670;2022-08-21T02:17:59;89.63;;;51.97;;
22268;SDS011;11303;50.772;19.670;2022-08-21T02:20:02;83.60;;;48.80;;
22268;SDS011;11303;50.772;19.670;2022-08-21T02:22:04;81.00;;;48.63;;
22268;SDS011;11303;50.772;19.670;2022-08-21T02:24:07;77.57;;;47.72;;
22268;SDS011;11303;50.772;19.670;2022-08-21T02:26:10;80.68;;;48.03;;
22268;SDS011;11303;50.772;19.670;2022-08-21T02:28:12;89.88;;;50.58;;
22268;SDS011;11303;50.772;19.670;2022-08-21T02:30:18;85.82;;;47.92;;
22268;SDS011;11303;50.772;19.670;2022-08-21T02:32:23;79.80;;;47.65;;
22268;SDS011;11303;50.772;19.670;2022-08-21T02:34:25;90.07;;;51.70;;
22268;SDS011;11303;50.772;19.670;2022-08-21T02:36:29;95.15;;;54.05;;
22268;SDS011;11303;50.772;19.670;2022-08-21T02:38:32;106.80;;;53.42;;
22268;SDS011;11303;50.772;19.670;2022-08-21T02:40:37;101.90;;;53.83;;
22268;SDS011;11303;50.772;19.670;2022-08-21T02:42:44;93.07;;;48.53;;
22268;SDS011;11303;50.772;19.670;2022-08-21T02:44:46;98.78;;;51.97;;
22268;SDS011;11303;50.772;19.670;2022-08-21T02:46:47;105.28;;;54.50;;
22268;SDS011;11303;50.772;19.670;2022-08-21T02:48:49;105.05;;;53.58;;
22268;SDS011;11303;50.772;19.670;2022-08-21T02:50:52;114.88;;;51.03;;
22268;SDS011;11303;50.772;19.670;2022-08-21T02:52:56;121.53;;;51.13;;
22268;SDS011;11303;50.772;19.670;2022-08-21T02:54:58;148.95;;;51.20;;
22268;SDS011;11303;50.772;19.670;2022-08-21T02:57:00;172.13;;;51.38;;
22268;SDS011;11303;50.772;19.670;2022-08-21T02:59:01;158.05;;;52.50;;
22268;SDS011;11303;50.772;19.670;2022-08-21T03:01:03;179.55;;;54.13;;
22268;SDS011;11303;50.772;19.670;2022-08-21T03:03:05;231.07;;;56.17;;
22268;SDS011;11303;50.772;19.670;2022-08-21T03:05:07;206.10;;;56.28;;
22268;SDS011;11303;50.772;19.670;2022-08-21T03:07:11;246.75;;;58.67;;
22268;SDS011;11303;50.772;19.670;2022-08-21T03:09:12;264.63;;;58.50;;
22268;SDS011;11303;50.772;19.670;2022-08-21T03:11:14;217.85;;;60.85;;
22268;SDS011;11303;50.772;19.670;2022-08-21T03:13:16;178.98;;;59.60;;
22268;SDS011;11303;50.772;19.670;2022-08-21T03:15:19;237.15;;;61.53;;
22268;SDS011;11303;50.772;19.670;2022-08-21T03:17:22;269.90;;;60.58;;
22268;SDS011;11303;50.772;19.670;2022-08-21T03:19:30;201.52;;;60.72;;
22268;SDS011;11303;50.772;19.670;2022-08-21T03:21:31;298.05;;;63.13;;
22268;SDS011;11303;50.772;19.670;2022-08-21T03:23:34;232.68;;;63.10;;
22268;SDS011;11303;50.772;19.670;2022-08-21T03:25:37;215.63;;;60.78;;
22268;SDS011;11303;50.772;19.670;2022-08-21T03:27:41;280.70;;;65.25;;
22268;SDS011;11303;50.772;19.670;2022-08-21T03:29:44;302.90;;;61.30;;
22268;SDS011;11303;50.772;19.670;2022-08-21T03:31:46;257.00;;;65.57;;
22268;SDS011;11303;50.772;19.670;2022-08-21T03:33:49;264.50;;;66.13;;
22268;SDS011;11303;50.772;19.670;2022-08-21T03:35:59;372.77;;;63.03;;
22268;SDS011;11303;50.772;19.670;2022-08-21T03:38:03;270.55;;;63.88;;
22268;SDS011;11303;50.772;19.670;2022-08-21T03:40:06;289.42;;;60.78;;
22268;SDS011;11303;50.772;19.670;2022-08-21T03:42:09;282.73;;;63.40;;
22268;SDS011;11303;50.772;19.670;2022-08-21T03:44:10;321.20;;;67.88;;
22268;SDS011;11303;50.772;19.670;2022-08-21T03:46:12;271.15;;;65.60;;
22268;SDS011;11303;50.772;19.670;2022-08-21T03:48:14;346.35;;;71.75;;
22268;SDS011;11303;50.772;19.670;2022-08-21T03:50:16;248.77;;;66.05;;
22268;SDS011;11303;50.772;19.670;2022-08-21T03:52:18;337.35;;;72.93;;
22268;SDS011;11303;50.772;19.670;2022-08-21T03:54:20;224.43;;;64.03;;
22268;SDS011;11303;50.772;19.670;2022-08-21T03:56:21;300.10;;;65.70;;
22268;SDS011;11303;50.772;19.670;2022-08-21T03:58:24;237.52;;;67.88;;
22268;SDS011;11303;50.772;19.670;2022-08-21T04:00:26;266.73;;;70.03;;
22268;SDS011;11303;50.772;19.670;2022-08-21T04:02:28;183.15;;;66.35;;
22268;SDS011;11303;50.772;19.670;2022-08-21T04:04:30;194.73;;;69.80;;
22268;SDS011;11303;50.772;19.670;2022-08-21T04:06:32;204.52;;;71.25;;
22268;SDS011;11303;50.772;19.670;2022-08-21T04:08:38;193.82;;;77.22;;
22268;SDS011;11303;50.772;19.670;2022-08-21T04:10:39;190.73;;;76.55;;
22268;SDS011;11303;50.772;19.670;2022-08-21T04:12:41;184.30;;;68.68;;
22268;SDS011;11303;50.772;19.670;2022-08-21T04:14:43;167.48;;;66.75;;
22268;SDS011;11303;50.772;19.670;2022-08-21T04:16:45;157.23;;;62.03;;
22268;SDS011;11303;50.772;19.670;2022-08-21T04:18:46;136.75;;;59.22;;
22268;SDS011;11303;50.772;19.670;2022-08-21T04:20:48;135.90;;;60.00;;
22268;SDS011;11303;50.772;19.670;2022-08-21T04:22:52;130.98;;;59.15;;
22268;SDS011;11303;50.772;19.670;2022-08-21T04:24:53;119.22;;;56.92;;
22268;SDS011;11303;50.772;19.670;2022-08-21T04:26:55;135.30;;;59.42;;
22268;SDS011;11303;50.772;19.670;2022-08-21T04:28:57;117.60;;;56.38;;
22268;SDS011;11303;50.772;19.670;2022-08-21T04:30:59;112.63;;;56.38;;
22268;SDS011;11303;50.772;19.670;2022-08-21T04:33:00;102.50;;;54.35;;
22268;SDS011;11303;50.772;19.670;2022-08-21T04:35:04;91.65;;;50.53;;
22268;SDS011;11303;50.772;19.670;2022-08-21T04:37:07;88.25;;;50.05;;
22268;SDS011;11303;50.772;19.670;2022-08-21T04:39:09;81.82;;;48.40;;
22268;SDS011;11303;50.772;19.670;2022-08-21T04:41:10;78.47;;;46.97;;
22268;SDS011;11303;50.772;19.670;2022-08-21T04:43:12;75.53;;;45.47;;
22268;SDS011;11303;50.772;19.670;2022-08-21T04:45:15;69.70;;;43.30;;
22268;SDS011;11303;50.772;19.670;2022-08-21T04:47:21;71.65;;;41.58;;
22268;SDS011;11303;50.772;19.670;2022-08-21T04:51:43;62.47;;;40.63;;
22268;SDS011;11303;50.772;19.670;2022-08-21T04:53:58;54.72;;;37.05;;
22268;SDS011;11303;50.772;19.670;2022-08-21T04:56:03;47.88;;;33.78;;
22268;SDS011;11303;50.772;19.670;2022-08-21T04:58:10;35.88;;;28.73;;
22268;SDS011;11303;50.772;19.670;2022-08-21T05:00:13;34.38;;;27.73;;
22268;SDS011;11303;50.772;19.670;2022-08-21T05:02:16;35.65;;;26.88;;
22268;SDS011;11303;50.772;19.670;2022-08-21T05:04:18;31.13;;;24.48;;
22268;SDS011;11303;50.772;19.670;2022-08-21T05:06:22;25.70;;;22.67;;
22268;SDS011;11303;50.772;19.670;2022-08-21T05:08:25;29.77;;;22.48;;
22268;SDS011;11303;50.772;19.670;2022-08-21T05:10:28;25.65;;;21.27;;
22268;SDS011;11303;50.772;19.670;2022-08-21T05:12:30;28.67;;;21.67;;
22268;SDS011;11303;50.772;19.670;2022-08-21T05:14:32;27.30;;;20.48;;
22268;SDS011;11303;50.772;19.670;2022-08-21T05:16:34;25.25;;;20.42;;
22268;SDS011;11303;50.772;19.670;2022-08-21T05:18:37;24.83;;;19.48;;
22268;SDS011;11303;50.772;19.670;2022-08-21T05:20:39;22.35;;;17.45;;
22268;SDS011;11303;50.772;19.670;2022-08-21T05:22:42;29.52;;;17.85;;
22268;SDS011;11303;50.772;19.670;2022-08-21T05:24:43;23.63;;;17.10;;
22268;SDS011;11303;50.772;19.670;2022-08-21T05:26:45;21.17;;;17.05;;
22268;SDS011;11303;50.772;19.670;2022-08-21T05:28:47;22.45;;;15.95;;
22268;SDS011;11303;50.772;19.670;2022-08-21T05:30:49;22.25;;;16.58;;
22268;SDS011;11303;50.772;19.670;2022-08-21T05:32:55;21.85;;;14.90;;
22268;SDS011;11303;50.772;19.670;2022-08-21T05:35:01;18.00;;;15.05;;
22268;SDS011;11303;50.772;19.670;2022-08-21T05:37:04;19.83;;;15.27;;
22268;SDS011;11303;50.772;19.670;2022-08-21T05:39:08;20.63;;;14.43;;
22268;SDS011;11303;50.772;19.670;2022-08-21T05:41:09;18.45;;;13.32;;
22268;SDS011;11303;50.772;19.670;2022-08-21T05:43:11;19.80;;;12.68;;
22268;SDS011;11303;50.772;19.670;2022-08-21T05:45:13;17.85;;;11.98;;
22268;SDS011;11303;50.772;19.670;2022-08-21T05:47:14;20.15;;;13.23;;
22268;SDS011;11303;50.772;19.670;2022-08-21T05:49:16;17.33;;;12.13;;
22268;SDS011;11303;50.772;19.670;2022-08-21T05:51:18;16.00;;;12.57;;
22268;SDS011;11303;50.772;19.670;2022-08-21T05:53:20;12.95;;;10.68;;
22268;SDS011;11303;50.772;19.670;2022-08-21T05:55:23;21.13;;;13.15;;
22268;SDS011;11303;50.772;19.670;2022-08-21T05:57:24;19.60;;;13.32;;
22268;SDS011;11303;50.772;19.670;2022-08-21T05:59:26;18.35;;;13.90;;
22268;SDS011;11303;50.772;19.670;2022-08-21T06:01:28;16.63;;;14.23;;
22268;SDS011;11303;50.772;19.670;2022-08-21T06:03:34;20.27;;;14.05;;
22268;SDS011;11303;50.772;19.670;2022-08-21T06:05:37;20.95;;;12.60;;
22268;SDS011;11303;50.772;19.670;2022-08-21T06:07:39;21.55;;;13.85;;
22268;SDS011;11303;50.772;19.670;2022-08-21T06:09:40;17.35;;;13.38;;
22268;SDS011;11303;50.772;19.670;2022-08-21T06:11:42;26.83;;;16.20;;
22268;SDS011;11303;50.772;19.670;2022-08-21T06:13:43;20.67;;;11.88;;
22268;SDS011;11303;50.772;19.670;2022-08-21T06:15:45;21.50;;;12.55;;
22268;SDS011;11303;50.772;19.670;2022-08-21T06:17:47;18.02;;;12.68;;
22268;SDS011;11303;50.772;19.670;2022-08-21T06:19:55;22.55;;;12.80;;
22268;SDS011;11303;50.772;19.670;2022-08-21T06:21:56;18.08;;;11.77;;
22268;SDS011;11303;50.772;19.670;2022-08-21T06:23:58;19.13;;;11.93;;
22268;SDS011;11303;50.772;19.670;2022-08-21T06:26:01;21.23;;;12.32;;
22268;SDS011;11303;50.772;19.670;2022-08-21T06:28:04;17.48;;;11.30;;
22268;SDS011;11303;50.772;19.670;2022-08-21T06:30:08;16.80;;;11.73;;
22268;SDS011;11303;50.772;19.670;2022-08-21T06:32:13;19.88;;;12.07;;
22268;SDS011;11303;50.772;19.670;2022-08-21T06:34:16;14.55;;;11.85;;
22268;SDS011;11303;50.772;19.670;2022-08-21T06:36:18;18.48;;;12.70;;
22268;SDS011;11303;50.772;19.670;2022-08-21T06:38:21;16.98;;;11.40;;
22268;SDS011;11303;50.772;19.670;2022-08-21T06:40:23;15.90;;;10.85;;
22268;SDS011;11303;50.772;19.670;2022-08-21T06:42:26;14.40;;;10.52;;
22268;SDS011;11303;50.772;19.670;2022-08-21T06:44:29;16.92;;;11.80;;
22268;SDS011;11303;50.772;19.670;2022-08-21T06:46:31;12.07;;;10.07;;
22268;SDS011;11303;50.772;19.670;2022-08-21T06:48:33;13.50;;;10.25;;
22268;SDS011;11303;50.772;19.670;2022-08-21T06:50:35;16.38;;;10.05;;
22268;SDS011;11303;50.772;19.670;2022-08-21T06:52:37;18.35;;;10.25;;
22268;SDS011;11303;50.772;19.670;2022-08-21T06:54:39;18.13;;;13.05;;
22268;SDS011;11303;50.772;19.670;2022-08-21T06:56:40;13.63;;;10.55;;
22268;SDS011;11303;50.772;19.670;2022-08-21T06:58:42;19.25;;;11.70;;
22268;SDS011;11303;50.772;19.670;2022-08-21T07:00:45;15.98;;;10.60;;
22268;SDS011;11303;50.772;19.670;2022-08-21T07:02:48;12.60;;;9.75;;
22268;SDS011;11303;50.772;19.670;2022-08-21T07:04:49;15.48;;;9.73;;
22268;SDS011;11303;50.772;19.670;2022-08-21T07:06:52;16.70;;;10.32;;
22268;SDS011;11303;50.772;19.670;2022-08-21T07:08:53;16.25;;;10.38;;
22268;SDS011;11303;50.772;19.670;2022-08-21T07:11:00;13.82;;;9.93;;
22268;SDS011;11303;50.772;19.670;2022-08-21T07:13:04;12.43;;;10.63;;
22268;SDS011;11303;50.772;19.670;2022-08-21T07:15:06;16.77;;;11.65;;
22268;SDS011;11303;50.772;19.670;2022-08-21T07:17:08;16.55;;;11.23;;
22268;SDS011;11303;50.772;19.670;2022-08-21T07:19:10;13.27;;;10.48;;
22268;SDS011;11303;50.772;19.670;2022-08-21T07:21:12;17.10;;;11.23;;
22268;SDS011;11303;50.772;19.670;2022-08-21T07:23:32;16.48;;;11.43;;
22268;SDS011;11303;50.772;19.670;2022-08-21T07:25:36;12.02;;;10.35;;
22268;SDS011;11303;50.772;19.670;2022-08-21T07:27:37;15.48;;;10.50;;
22268;SDS011;11303;50.772;19.670;2022-08-21T07:29:39;14.93;;;9.77;;
22268;SDS011;11303;50.772;19.670;2022-08-21T07:31:41;16.58;;;10.43;;
22268;SDS011;11303;50.772;19.670;2022-08-21T07:33:43;15.13;;;12.20;;
22268;SDS011;11303;50.772;19.670;2022-08-21T07:35:45;16.17;;;10.57;;
22268;SDS011;11303;50.772;19.670;2022-08-21T07:37:47;19.77;;;10.63;;
22268;SDS011;11303;50.772;19.670;2022-08-21T07:39:48;13.00;;;10.13;;
22268;SDS011;11303;50.772;19.670;2022-08-21T07:41:50;18.58;;;11.68;;
22268;SDS011;11303;50.772;19.670;2022-08-21T07:43:52;15.70;;;10.90;;
22268;SDS011;11303;50.772;19.670;2022-08-21T07:45:54;21.30;;;11.68;;
22268;SDS011;11303;50.772;19.670;2022-08-21T07:47:56;15.93;;;10.90;;
22268;SDS011;11303;50.772;19.670;2022-08-21T07:49:57;22.95;;;12.05;;
22268;SDS011;11303;50.772;19.670;2022-08-21T07:51:59;18.40;;;12.30;;
22268;SDS011;11303;50.772;19.670;2022-08-21T07:54:01;14.63;;;10.95;;
22268;SDS011;11303;50.772;19.670;2022-08-21T07:56:04;17.02;;;10.52;;
22268;SDS011;11303;50.772;19.670;2022-08-21T07:58:06;16.48;;;10.40;;
22268;SDS011;11303;50.772;19.670;2022-08-21T08:00:10;16.67;;;11.02;;
22268;SDS011;11303;50.772;19.670;2022-08-21T08:02:26;15.25;;;10.98;;
22268;SDS011;11303;50.772;19.670;2022-08-21T08:04:29;17.52;;;11.30;;
22268;SDS011;11303;50.772;19.670;2022-08-21T08:06:31;16.83;;;10.63;;
22268;SDS011;11303;50.772;19.670;2022-08-21T08:08:32;14.13;;;11.25;;
22268;SDS011;11303;50.772;19.670;2022-08-21T08:10:34;20.50;;;11.80;;
22268;SDS011;11303;50.772;19.670;2022-08-21T08:12:37;18.58;;;11.90;;
22268;SDS011;11303;50.772;19.670;2022-08-21T08:14:40;18.00;;;11.65;;
22268;SDS011;11303;50.772;19.670;2022-08-21T08:16:41;15.13;;;11.80;;
22268;SDS011;11303;50.772;19.670;2022-08-21T08:18:43;17.27;;;12.52;;
22268;SDS011;11303;50.772;19.670;2022-08-21T08:20:45;19.60;;;12.60;;
22268;SDS011;11303;50.772;19.670;2022-08-21T08:22:47;14.88;;;11.38;;
22268;SDS011;11303;50.772;19.670;2022-08-21T08:24:51;18.70;;;12.50;;
22268;SDS011;11303;50.772;19.670;2022-08-21T08:26:52;15.93;;;12.20;;
22268;SDS011;11303;50.772;19.670;2022-08-21T08:28:55;21.05;;;12.73;;
22268;SDS011;11303;50.772;19.670;2022-08-21T08:30:57;20.88;;;13.40;;
22268;SDS011;11303;50.772;19.670;2022-08-21T08:32:59;15.73;;;13.38;;
22268;SDS011;11303;50.772;19.670;2022-08-21T08:35:02;19.15;;;13.63;;
22268;SDS011;11303;50.772;19.670;2022-08-21T08:37:05;17.10;;;12.63;;
22268;SDS011;11303;50.772;19.670;2022-08-21T08:39:08;20.60;;;14.77;;
22268;SDS011;11303;50.772;19.670;2022-08-21T08:41:16;17.67;;;14.63;;
22268;SDS011;11303;50.772;19.670;2022-08-21T08:43:20;20.60;;;15.83;;
22268;SDS011;11303;50.772;19.670;2022-08-21T08:45:21;20.13;;;14.98;;
22268;SDS011;11303;50.772;19.670;2022-08-21T08:47:27;22.60;;;15.68;;
22268;SDS011;11303;50.772;19.670;2022-08-21T08:49:37;21.38;;;15.18;;
22268;SDS011;11303;50.772;19.670;2022-08-21T08:54:00;22.83;;;16.65;;
22268;SDS011;11303;50.772;19.670;2022-08-21T08:56:05;21.98;;;16.02;;
22268;SDS011;11303;50.772;19.670;2022-08-21T08:58:09;24.48;;;18.42;;
22268;SDS011;11303;50.772;19.670;2022-08-21T09:00:14;30.05;;;19.35;;
22268;SDS011;11303;50.772;19.670;2022-08-21T09:02:19;24.83;;;18.38;;
22268;SDS011;11303;50.772;19.670;2022-08-21T09:04:22;28.00;;;19.30;;
22268;SDS011;11303;50.772;19.670;2022-08-21T09:09:02;26.30;;;20.00;;
22268;SDS011;11303;50.772;19.670;2022-08-21T09:13:50;26.95;;;20.05;;
22268;SDS011;11303;50.772;19.670;2022-08-21T09:16:05;27.38;;;18.60;;
22268;SDS011;11303;50.772;19.670;2022-08-21T09:23:25;28.85;;;18.33;;
22268;SDS011;11303;50.772;19.670;2022-08-21T09:28:13;32.35;;;20.98;;
22268;SDS011;11303;50.772;19.670;2022-08-21T09:30:16;29.25;;;20.23;;
22268;SDS011;11303;50.772;19.670;2022-08-21T09:32:26;30.08;;;20.92;;
22268;SDS011;11303;50.772;19.670;2022-08-21T09:34:38;24.80;;;20.27;;
22268;SDS011;11303;50.772;19.670;2022-08-21T09:36:44;28.35;;;21.77;;
22268;SDS011;11303;50.772;19.670;2022-08-21T09:38:51;33.40;;;23.38;;
22268;SDS011;11303;50.772;19.670;2022-08-21T09:41:12;35.63;;;24.15;;
22268;SDS011;11303;50.772;19.670;2022-08-21T09:45:17;35.55;;;25.33;;
22268;SDS011;11303;50.772;19.670;2022-08-21T09:47:19;34.72;;;25.92;;
22268;SDS011;11303;50.772;19.670;2022-08-21T09:49:39;39.45;;;25.63;;
22268;SDS011;11303;50.772;19.670;2022-08-21T09:51:48;36.65;;;26.75;;
22268;SDS011;11303;50.772;19.670;2022-08-21T09:54:38;35.72;;;27.08;;
22268;SDS011;11303;50.772;19.670;2022-08-21T09:56:19;38.60;;;25.20;;
22268;SDS011;11303;50.772;19.670;2022-08-21T09:58:42;37.28;;;25.27;;
22268;SDS011;11303;50.772;19.670;2022-08-21T10:00:47;35.90;;;26.27;;
22268;SDS011;11303;50.772;19.670;2022-08-21T10:03:11;31.73;;;23.70;;
22268;SDS011;11303;50.772;19.670;2022-08-21T10:05:22;35.47;;;25.50;;
22268;SDS011;11303;50.772;19.670;2022-08-21T10:07:27;38.00;;;26.42;;
22268;SDS011;11303;50.772;19.670;2022-08-21T10:09:30;41.13;;;26.55;;
22268;SDS011;11303;50.772;19.670;2022-08-21T10:11:31;34.92;;;26.33;;
22268;SDS011;11303;50.772;19.670;2022-08-21T10:13:40;46.08;;;28.30;;
22268;SDS011;11303;50.772;19.670;2022-08-21T10:15:51;40.20;;;29.02;;
22268;SDS011;11303;50.772;19.670;2022-08-21T10:18:24;40.10;;;28.65;;
22268;SDS011;11303;50.772;19.670;2022-08-21T10:25:27;44.78;;;28.58;;
22268;SDS011;11303;50.772;19.670;2022-08-21T10:28:12;40.97;;;29.25;;
22268;SDS011;11303;50.772;19.670;2022-08-21T10:30:21;44.33;;;28.38;;
22268;SDS011;11303;50.772;19.670;2022-08-21T10:32:31;39.13;;;28.40;;
22268;SDS011;11303;50.772;19.670;2022-08-21T10:35:10;37.45;;;27.67;;
22268;SDS011;11303;50.772;19.670;2022-08-21T10:37:21;42.60;;;28.55;;
22268;SDS011;11303;50.772;19.670;2022-08-21T10:39:46;37.47;;;26.92;;
22268;SDS011;11303;50.772;19.670;2022-08-21T10:48:55;32.67;;;24.58;;
22268;SDS011;11303;50.772;19.670;2022-08-21T10:57:41;32.15;;;23.00;;
22268;SDS011;11303;50.772;19.670;2022-08-21T10:59:53;31.75;;;21.75;;
22268;SDS011;11303;50.772;19.670;2022-08-21T11:02:00;30.48;;;21.27;;
22268;SDS011;11303;50.772;19.670;2022-08-21T11:06:52;31.65;;;20.25;;
22268;SDS011;11303;50.772;19.670;2022-08-21T11:08:59;24.75;;;19.58;;
22268;SDS011;11303;50.772;19.670;2022-08-21T11:11:13;26.17;;;20.73;;
22268;SDS011;11303;50.772;19.670;2022-08-21T11:13:27;25.98;;;19.75;;
22268;SDS011;11303;50.772;19.670;2022-08-21T11:15:39;26.73;;;19.95;;
22268;SDS011;11303;50.772;19.670;2022-08-21T11:17:54;28.25;;;19.23;;
22268;SDS011;11303;50.772;19.670;2022-08-21T11:20:10;26.17;;;18.70;;
22268;SDS011;11303;50.772;19.670;2022-08-21T11:22:16;26.08;;;19.20;;
22268;SDS011;11303;50.772;19.670;2022-08-21T11:29:16;20.70;;;17.77;;
22268;SDS011;11303;50.772;19.670;2022-08-21T11:31:29;21.90;;;16.60;;
22268;SDS011;11303;50.772;19.670;2022-08-21T11:36:16;20.80;;;16.92;;
22268;SDS011;11303;50.772;19.670;2022-08-21T11:38:22;22.23;;;15.88;;
22268;SDS011;11303;50.772;19.670;2022-08-21T11:43:17;24.95;;;17.05;;
22268;SDS011;11303;50.772;19.670;2022-08-21T11:52:41;35.55;;;17.45;;
22268;SDS011;11303;50.772;19.670;2022-08-21T11:54:48;31.67;;;20.35;;
22268;SDS011;11303;50.772;19.670;2022-08-21T11:56:57;24.17;;;17.05;;
22268;SDS011;11303;50.772;19.670;2022-08-21T11:59:02;28.05;;;17.67;;
22268;SDS011;11303;50.772;19.670;2022-08-21T12:01:14;24.40;;;16.67;;
22268;SDS011;11303;50.772;19.670;2022-08-21T12:03:34;20.65;;;16.08;;
22268;SDS011;11303;50.772;19.670;2022-08-21T12:05:43;17.58;;;15.38;;
22268;SDS011;11303;50.772;19.670;2022-08-21T12:07:47;27.13;;;16.52;;
22268;SDS011;11303;50.772;19.670;2022-08-21T12:09:53;22.67;;;16.90;;
22268;SDS011;11303;50.772;19.670;2022-08-21T12:12:13;22.05;;;17.35;;
22268;SDS011;11303;50.772;19.670;2022-08-21T12:14:35;24.88;;;17.98;;
22268;SDS011;11303;50.772;19.670;2022-08-21T12:16:48;27.05;;;18.73;;
22268;SDS011;11303;50.772;19.670;2022-08-21T12:18:50;24.58;;;19.17;;
22268;SDS011;11303;50.772;19.670;2022-08-21T12:23:30;23.25;;;17.08;;
22268;SDS011;11303;50.772;19.670;2022-08-21T12:28:22;25.33;;;17.90;;
22268;SDS011;11303;50.772;19.670;2022-08-21T12:34:49;28.40;;;19.08;;
22268;SDS011;11303;50.772;19.670;2022-08-21T12:36:56;23.35;;;18.63;;
22268;SDS011;11303;50.772;19.670;2022-08-21T12:39:01;27.77;;;18.75;;
22268;SDS011;11303;50.772;19.670;2022-08-21T12:41:10;26.10;;;18.33;;
22268;SDS011;11303;50.772;19.670;2022-08-21T12:43:19;25.90;;;18.13;;
22268;SDS011;11303;50.772;19.670;2022-08-21T12:45:54;19.85;;;17.65;;
22268;SDS011;11303;50.772;19.670;2022-08-21T12:47:58;28.45;;;18.70;;
22268;SDS011;11303;50.772;19.670;2022-08-21T12:50:03;20.90;;;16.77;;
22268;SDS011;11303;50.772;19.670;2022-08-21T12:52:23;23.15;;;17.10;;
22268;SDS011;11303;50.772;19.670;2022-08-21T12:54:31;29.00;;;16.33;;
22268;SDS011;11303;50.772;19.670;2022-08-21T12:56:38;23.05;;;17.00;;
22268;SDS011;11303;50.772;19.670;2022-08-21T12:58:44;22.17;;;16.52;;
22268;SDS011;11303;50.772;19.670;2022-08-21T13:01:05;20.75;;;15.48;;
22268;SDS011;11303;50.772;19.670;2022-08-21T13:03:09;22.63;;;16.33;;
22268;SDS011;11303;50.772;19.670;2022-08-21T13:05:12;19.63;;;15.95;;